Time;durP1;ratioP1;P1;durP2;ratioP2;P2;SDS_P1;SDS_P2;PMS_P1;PMS_P2;Temp;Humidity;BMP_temperature;BMP_pressure;BME280_temperature;BME280_humidity;BME280_pressure;Samples;Min_cycle;Max_cycle;Signal;HPM_P1;HPM_P2
2021/06/04 00:01:09;;;;;;;10.60;5.80;;;;;;;21.50;53.88;98368.63;8515684;28;20208;-74
2021/06/04 00:05:12;;;;;;;8.77;5.33;;;;;;;21.37;54.10;98357.41;8517043;28;20202;-73
2021/06/04 00:09:15;;;;;;;8.80;5.50;;;;;;;21.40;53.64;98365.91;8516648;28;20236;-73
2021/06/04 00:13:23;;;;;;;8.20;5.90;;;;;;;21.22;54.20;98362.97;8516484;28;20204;-73
2021/06/04 00:17:27;;;;;;;8.23;5.80;;;;;;;21.15;54.40;98361.81;8517056;28;20392;-73
2021/06/04 00:21:33;;;;;;;9.23;6.03;;;;;;;21.23;54.47;98369.91;8516728;28;20219;-73
2021/06/04 00:25:37;;;;;;;6.17;5.20;;;;;;;21.25;54.30;98372.44;8516035;28;20246;-73
2021/06/04 00:29:41;;;;;;;6.43;5.67;;;;;;;21.16;54.32;98363.47;8516202;28;20232;-73
2021/06/04 00:33:45;;;;;;;6.63;5.17;;;;;;;21.15;54.86;98358.31;8519116;27;20197;-73
2021/06/04 00:37:47;;;;;;;7.17;5.50;;;;;;;21.01;55.13;98359.44;8522668;27;20208;-73
2021/06/04 00:41:52;;;;;;;8.67;5.50;;;;;;;20.96;54.92;98359.84;8522215;27;20386;-73
2021/06/04 00:45:57;;;;;;;5.77;5.17;;;;;;;20.86;54.88;98359.72;8522184;27;20197;-73
2021/06/04 00:50:01;;;;;;;7.70;5.27;;;;;;;20.85;55.30;98352.78;8522267;27;20562;-73
2021/06/04 00:54:05;;;;;;;8.40;5.30;;;;;;;20.92;55.54;98352.28;8522003;27;20221;-73
2021/06/04 00:58:08;;;;;;;6.70;5.00;;;;;;;20.86;55.34;98353.63;8521674;27;20202;-73
2021/06/04 01:02:13;;;;;;;5.97;5.03;;;;;;;20.79;55.47;98360.31;8521582;27;20484;-73
2021/06/04 01:06:24;;;;;;;6.20;4.97;;;;;;;20.76;55.42;98363.22;8521731;27;20197;-73
2021/06/04 01:10:33;;;;;;;6.83;5.00;;;;;;;20.74;55.22;98358.06;8521293;27;20427;-73
2021/06/04 01:14:39;;;;;;;6.37;5.10;;;;;;;20.71;54.86;98353.06;8522610;27;20468;-73
2021/06/04 01:18:51;;;;;;;5.83;5.23;;;;;;;20.66;55.14;98353.44;8522433;27;20490;-73
2021/06/04 01:23:34;;;;;;;6.83;5.20;;;;;;;20.58;55.73;98352.31;8521260;27;20184;-73
2021/06/04 01:27:40;;;;;;;7.23;5.13;;;;;;;20.64;55.54;98352.72;8520693;27;20225;-73
2021/06/04 01:31:46;;;;;;;7.83;5.97;;;;;;;20.50;56.20;98359.06;8521359;27;20197;-73
2021/06/04 01:35:52;;;;;;;6.30;5.27;;;;;;;20.61;55.64;98360.00;8521380;27;20185;-73
2021/06/04 01:39:57;;;;;;;7.50;5.53;;;;;;;20.58;55.88;98352.31;8520860;27;20396;-74
2021/06/04 01:44:06;;;;;;;11.27;5.80;;;;;;;20.53;55.99;98362.41;8521061;27;20197;-73
2021/06/04 01:48:12;;;;;;;8.60;5.70;;;;;;;20.54;55.86;98362.25;8520301;27;20225;-71
2021/06/04 01:52:17;;;;;;;7.53;5.13;;;;;;;20.56;55.63;98359.50;8519843;27;20197;-71
2021/06/04 01:56:23;;;;;;;8.80;5.60;;;;;;;20.57;55.73;98375.16;8520135;27;20401;-71
2021/06/04 02:00:28;;;;;;;9.40;5.53;;;;;;;20.59;55.04;98369.78;8519773;27;20198;-71
2021/06/04 02:04:36;;;;;;;7.80;6.23;;;;;;;20.48;55.75;98370.63;8519620;27;20208;-71
2021/06/04 02:08:42;;;;;;;7.97;6.00;;;;;;;20.57;56.22;98369.09;8519687;27;20229;-72
2021/06/04 02:12:47;;;;;;;9.07;5.53;;;;;;;20.61;55.70;98360.84;8519548;27;20197;-71
2021/06/04 02:16:57;;;;;;;6.63;5.43;;;;;;;20.33;54.39;98362.13;8519657;27;20209;-71
2021/06/04 02:21:03;;;;;;;6.57;5.20;;;;;;;19.96;53.45;98372.06;8519320;27;20202;-71
2021/06/04 02:25:11;;;;;;;7.63;5.03;;;;;;;20.43;53.23;98357.84;8519519;27;20507;-73
2021/06/04 02:29:16;;;;;;;7.73;5.57;;;;;;;20.13;51.85;98365.50;8518783;27;20225;-73
2021/06/04 02:33:23;;;;;;;8.70;5.27;;;;;;;20.09;51.29;98357.03;8519053;27;20359;-73
2021/06/04 02:37:30;;;;;;;6.87;5.50;;;;;;;20.31;51.00;98354.41;8518619;27;20227;-74
2021/06/04 02:41:36;;;;;;;5.80;5.20;;;;;;;20.37;51.34;98365.38;8519016;27;20210;-74
2021/06/04 02:45:41;;;;;;;6.53;5.80;;;;;;;20.23;52.12;98369.91;8518726;27;20197;-73
2021/06/04 02:49:45;;;;;;;8.43;5.73;;;;;;;20.30;51.67;98363.22;8519041;27;20285;-73
2021/06/04 02:53:51;;;;;;;5.80;5.17;;;;;;;20.41;51.42;98369.44;8518150;27;20495;-74
2021/06/04 02:57:53;;;;;;;5.67;4.80;;;;;;;20.45;50.87;98371.72;8517761;27;20396;-73
2021/06/04 03:01:59;;;;;;;5.97;5.37;;;;;;;20.10;50.76;98363.94;8517900;27;20193;-73
2021/06/04 03:06:04;;;;;;;9.10;4.97;;;;;;;19.94;50.71;98356.41;8517898;27;20208;-73
2021/06/04 03:10:11;;;;;;;5.70;4.50;;;;;;;20.17;50.03;98356.44;8518050;27;20231;-73
2021/06/04 03:14:15;;;;;;;7.00;4.67;;;;;;;20.30;48.90;98359.78;8517746;27;20522;-73
2021/06/04 03:18:20;;;;;;;4.60;4.17;;;;;;;20.00;48.36;98366.44;8517746;27;20200;-73
2021/06/04 03:22:27;;;;;;;5.07;3.80;;;;;;;20.01;47.85;98356.75;8517831;27;20492;-73
2021/06/04 03:26:31;;;;;;;4.63;3.73;;;;;;;20.00;47.51;98355.09;8517942;27;20429;-73
2021/06/04 03:30:36;;;;;;;4.23;3.83;;;;;;;20.00;47.07;98360.34;8516988;28;20221;-74
2021/06/04 03:34:39;;;;;;;5.30;3.80;;;;;;;20.01;46.94;98367.25;8516969;28;20197;-73
2021/06/04 03:38:44;;;;;;;9.00;3.93;;;;;;;19.84;47.01;98369.41;8517027;28;20208;-73
2021/06/04 03:42:47;;;;;;;5.40;3.93;;;;;;;20.11;46.55;98366.44;8516947;28;20201;-73
2021/06/04 03:46:49;;;;;;;5.03;3.83;;;;;;;20.22;46.54;98372.66;8517259;28;20201;-73
2021/06/04 03:50:54;;;;;;;5.10;3.50;;;;;;;20.33;46.25;98370.03;8516941;28;20252;-73
2021/06/04 03:54:59;;;;;;;4.43;3.50;;;;;;;20.40;45.57;98375.66;8517032;28;20239;-73
2021/06/04 03:59:03;;;;;;;4.70;3.33;;;;;;;20.41;45.84;98377.31;8516927;28;20486;-73
2021/06/04 04:03:06;;;;;;;4.13;3.73;;;;;;;20.43;45.12;98380.69;8516995;28;20202;-73
2021/06/04 04:07:12;;;;;;;4.27;3.50;;;;;;;20.27;45.01;98381.03;8517497;27;20182;-73
2021/06/04 04:11:16;;;;;;;6.37;3.60;;;;;;;20.30;44.58;98386.06;8523283;27;20415;-73
2021/06/04 04:15:19;;;;;;;4.13;3.57;;;;;;;20.08;44.78;98392.97;8523301;27;20209;-73
2021/06/04 04:19:23;;;;;;;3.60;3.30;;;;;;;20.41;44.25;98388.69;8523247;27;20216;-73
2021/06/04 04:23:30;;;;;;;4.63;3.60;;;;;;;20.13;44.21;98383.91;8522843;27;20197;-73
2021/06/04 04:27:34;;;;;;;5.23;3.77;;;;;;;19.80;45.65;98388.13;8523068;27;20240;-73
2021/06/04 04:31:39;;;;;;;4.17;3.67;;;;;;;19.78;45.38;98385.66;8523372;27;20538;-73
2021/06/04 04:35:42;;;;;;;7.23;3.73;;;;;;;20.16;44.29;98388.91;8522530;27;20268;-73
2021/06/04 04:39:46;;;;;;;5.37;3.77;;;;;;;19.60;45.01;98372.06;8523719;27;20507;-73
2021/06/04 04:43:51;;;;;;;4.27;3.37;;;;;;;19.49;45.50;98379.91;8522492;27;20209;-73
2021/06/04 04:47:54;;;;;;;5.17;3.37;;;;;;;19.88;44.80;98381.34;8521901;27;20185;-73
2021/06/04 04:51:56;;;;;;;6.70;3.43;;;;;;;19.98;44.48;98397.25;8521896;27;20234;-74
2021/06/04 04:55:59;;;;;;;6.97;3.67;;;;;;;19.87;44.54;98391.97;8521760;27;20307;-74
2021/06/04 05:00:06;;;;;;;6.37;3.30;;;;;;;19.88;44.56;98394.50;8521322;27;20197;-74
2021/06/04 05:04:09;;;;;;;5.30;3.47;;;;;;;19.98;44.97;98397.25;8521455;27;20203;-74
2021/06/04 05:08:12;;;;;;;5.60;3.40;;;;;;;19.90;45.17;98395.22;8521326;27;20201;-74
2021/06/04 05:12:14;;;;;;;5.40;3.50;;;;;;;20.08;44.95;98405.28;8521430;27;20438;-74
2021/06/04 05:16:18;;;;;;;4.03;3.37;;;;;;;20.30;45.14;98402.69;8521470;27;20197;-74
2021/06/04 05:20:22;;;;;;;10.30;3.87;;;;;;;20.15;45.24;98403.03;8520893;27;20201;-74
2021/06/04 05:24:29;;;;;;;13.80;4.00;;;;;;;20.04;45.82;98411.72;8521154;27;20231;-74
2021/06/04 05:28:31;;;;;;;8.83;3.37;;;;;;;20.38;44.92;98409.97;8520819;27;20234;-74
2021/06/04 05:32:35;;;;;;;8.77;3.80;;;;;;;20.37;45.24;98413.56;8521055;27;20197;-73
2021/06/04 05:36:39;;;;;;;4.47;3.50;;;;;;;20.22;45.36;98412.09;8521189;27;20204;-73
2021/06/04 05:40:44;;;;;;;5.17;3.27;;;;;;;20.37;45.07;98408.31;8520631;27;20224;-73
2021/06/04 05:44:47;;;;;;;9.77;3.63;;;;;;;20.25;45.41;98417.13;8520389;27;20204;-74
2021/06/04 05:48:51;;;;;;;8.00;3.97;;;;;;;20.02;46.65;98422.34;8520217;27;20229;-74
2021/06/04 05:52:54;;;;;;;5.80;3.80;;;;;;;20.20;46.62;98422.75;8520027;27;20525;-74
2021/06/04 05:56:57;;;;;;;9.40;3.70;;;;;;;20.41;46.34;98415.00;8519185;27;20216;-74
2021/06/04 06:01:01;;;;;;;5.40;3.67;;;;;;;20.36;46.65;98424.22;8519506;27;20210;-74
2021/06/04 06:05:06;;;;;;;6.57;3.60;;;;;;;20.33;46.84;98429.69;8519265;27;20209;-74
2021/06/04 06:09:09;;;;;;;6.00;3.90;;;;;;;20.36;45.83;98424.22;8518991;27;20221;-74
2021/06/04 06:13:12;;;;;;;14.70;4.00;;;;;;;20.43;46.40;98436.75;8519602;27;20198;-73
2021/06/04 06:17:15;;;;;;;5.53;3.60;;;;;;;20.66;45.04;98437.63;8519246;27;20193;-74
2021/06/04 06:21:18;;;;;;;5.03;3.70;;;;;;;20.76;45.95;98444.81;8518352;27;20193;-74
2021/06/04 06:25:25;;;;;;;8.77;6.10;;;;;;;21.01;44.51;98459.50;8518821;27;21326;-74
2021/06/04 06:29:29;;;;;;;8.40;4.30;;;;;;;20.91;44.78;98455.94;8518607;27;20224;-74
2021/06/04 06:33:32;;;;;;;6.77;3.33;;;;;;;21.16;43.86;98455.63;8517861;27;20273;-73
2021/06/04 06:37:36;;;;;;;8.60;3.60;;;;;;;21.26;43.32;98456.56;8518585;27;20198;-74
2021/06/04 06:41:40;;;;;;;6.37;4.00;;;;;;;21.05;43.73;98461.75;8518549;27;20202;-73
2021/06/04 06:45:43;;;;;;;5.27;3.47;;;;;;;21.14;43.27;98465.47;8518288;27;20217;-74
2021/06/04 06:49:45;;;;;;;6.60;3.90;;;;;;;21.38;43.70;98465.28;8518313;27;20233;-74
2021/06/04 06:53:49;;;;;;;7.50;3.77;;;;;;;21.36;44.28;98466.34;8517876;27;20201;-74
2021/06/04 06:57:52;;;;;;;9.20;4.17;;;;;;;21.63;43.31;98463.31;8518897;27;20316;-74
2021/06/04 07:01:54;;;;;;;6.83;4.10;;;;;;;21.96;42.78;98469.41;8517791;27;20233;-74
2021/06/04 07:06:00;;;;;;;6.80;3.93;;;;;;;22.10;42.16;98478.78;8517855;27;20396;-74
2021/06/04 07:10:04;;;;;;;7.53;3.60;;;;;;;21.91;42.81;98480.31;8517248;27;20220;-74
2021/06/04 07:14:08;;;;;;;10.27;4.33;;;;;;;22.03;41.89;98486.38;8517251;27;20191;-74
2021/06/04 07:18:11;;;;;;;8.10;3.83;;;;;;;21.76;42.17;98481.59;8517212;27;20204;-74
2021/06/04 07:22:13;;;;;;;8.77;3.97;;;;;;;21.65;42.02;98480.69;8517104;27;20216;-74
2021/06/04 07:26:17;;;;;;;9.37;3.83;;;;;;;21.71;43.03;98486.41;8514346;27;20236;-74
2021/06/04 07:30:24;;;;;;;10.20;3.63;;;;;;;21.94;42.64;98495.06;8516900;27;20515;-74
2021/06/04 07:34:28;;;;;;;12.43;3.73;;;;;;;21.98;42.13;98501.75;8516744;28;20196;-74
2021/06/04 07:38:30;;;;;;;8.30;3.33;;;;;;;22.12;42.36;98495.31;8517313;28;20304;-73
2021/06/04 07:42:34;;;;;;;8.10;3.50;;;;;;;22.27;42.19;98501.97;8519736;27;20200;-73
2021/06/04 07:46:37;;;;;;;5.97;3.27;;;;;;;22.27;42.39;98503.78;8523892;27;20208;-73
2021/06/04 07:50:41;;;;;;;7.73;3.87;;;;;;;22.24;42.29;98505.69;8523685;27;20243;-73
2021/06/04 07:54:43;;;;;;;3.80;3.30;;;;;;;22.39;42.27;98511.50;8523395;27;20219;-73
2021/06/04 07:58:48;;;;;;;6.03;3.10;;;;;;;22.44;42.06;98511.09;8523465;27;20226;-72
2021/06/04 08:02:50;;;;;;;6.53;3.50;;;;;;;22.18;42.23;98505.34;8523451;27;20522;-72
2021/06/04 08:06:53;;;;;;;6.33;3.70;;;;;;;22.39;41.72;98510.66;8523188;27;20197;-72
2021/06/04 08:10:56;;;;;;;4.87;3.30;;;;;;;22.74;41.41;98502.38;8523078;27;20217;-73
2021/06/04 08:15:01;;;;;;;4.73;3.30;;;;;;;22.65;41.53;98506.63;8523253;27;20199;-72
2021/06/04 08:19:03;;;;;;;8.73;3.50;;;;;;;22.71;40.99;98515.84;8522412;27;20188;-73
2021/06/04 08:23:07;;;;;;;6.53;3.10;;;;;;;;;;8521875;27;20510;-73
2021/06/04 08:27:11;;;;;;;7.33;3.00;;;;;;;23.18;39.60;98500.34;8521955;27;20224;-73
2021/06/04 08:31:16;;;;;;;6.13;3.30;;;;;;;23.49;38.70;98496.78;8519184;27;20285;-73
2021/06/04 08:35:19;;;;;;;6.80;3.00;;;;;;;23.67;39.12;98503.09;8521892;27;20192;-73
2021/06/04 08:39:29;;;;;;;7.10;3.00;;;;;;;23.75;39.31;98507.69;8521652;27;20259;-74
2021/06/04 08:43:45;;;;;;;10.07;3.30;;;;;;;23.61;39.12;98503.63;8519096;27;20193;-75
2021/06/04 08:47:57;;;;;;;6.70;3.67;;;;;;;23.77;37.79;98495.16;8521069;27;20227;-74
2021/06/04 08:52:12;;;;;;;6.27;3.20;;;;;;;23.92;37.30;98496.44;8519263;27;20232;-74
2021/06/04 08:56:17;;;;;;;5.60;3.20;;;;;;;24.35;35.90;98491.63;8518331;27;20314;-75
2021/06/04 09:00:22;;;;;;;7.80;3.23;;;;;;;24.06;36.71;98489.03;8521303;27;20515;-73
2021/06/04 09:04:29;;;;;;;5.33;3.10;;;;;;;23.99;37.47;98489.63;8521771;27;20200;-73
2021/06/04 09:08:33;;;;;;;4.73;3.00;;;;;;;24.86;35.91;98482.44;8521617;27;20204;-69
2021/06/04 09:12:43;;;;;;;6.27;3.30;;;;;;;24.58;35.92;98478.94;8521297;27;20224;-71
2021/06/04 09:16:55;;;;;;;7.13;3.00;;;;;;;24.59;36.30;98477.94;8520986;27;20197;-70
2021/06/04 09:21:03;;;;;;;8.10;3.20;;;;;;;24.91;36.02;98480.19;8521080;27;20200;-68
2021/06/04 09:25:09;;;;;;;8.40;3.23;;;;;;;24.65;35.60;98474.72;8520386;27;20225;-69
2021/06/04 09:29:16;;;;;;;6.30;2.87;;;;;;;25.04;35.08;98468.44;8517158;27;20193;-69
2021/06/04 09:33:26;;;;;;;4.57;2.77;;;;;;;25.45;35.12;98463.59;8520648;27;20244;-69
2021/06/04 09:37:32;;;;;;;5.53;3.53;;;;;;;25.23;34.99;98473.66;8520559;27;20385;-69
2021/06/04 09:41:40;;;;;;;5.03;3.00;;;;;;;25.89;34.47;98477.78;8520495;27;20323;-69
2021/06/04 09:45:53;;;;;;;5.53;3.10;;;;;;;25.78;34.07;98469.19;8520498;27;20185;-69
2021/06/04 09:49:56;;;;;;;3.90;3.03;;;;;;;26.29;33.76;98481.75;8519652;27;20228;-69
2021/06/04 09:54:23;;;;;;;9.17;3.37;;;;;;;26.30;33.76;98479.94;8519877;27;20198;-69
2021/06/04 09:58:26;;;;;;;5.20;3.10;;;;;;;25.79;34.35;98474.34;8520291;27;20251;-69
2021/06/04 10:02:34;;;;;;;6.73;3.20;;;;;;;26.02;33.62;98471.25;8519550;27;20403;-69
2021/06/04 10:06:42;;;;;;;9.23;3.20;;;;;;;25.49;34.47;98463.16;8518448;27;20318;-68
2021/06/04 10:10:48;;;;;;;6.93;3.50;;;;;;;25.82;34.71;98465.28;8519661;27;20535;-69
2021/06/04 10:14:53;;;;;;;5.63;3.40;;;;;;;26.00;34.80;98457.31;8519599;27;20198;-69
2021/06/04 10:18:56;;;;;;;8.43;3.33;;;;;;;25.81;35.06;98459.13;8519203;27;20508;-69
2021/06/04 10:23:11;;;;;;;5.07;3.20;;;;;;;25.87;34.06;98455.03;8518993;27;20203;-69
2021/06/04 10:27:19;;;;;;;7.43;2.97;;;;;;;26.21;34.60;98456.97;8518570;27;20226;-69
2021/06/04 10:31:46;;;;;;;6.90;3.13;;;;;;;25.79;32.96;98445.16;8518692;27;20236;-69
2021/06/04 10:35:55;;;;;;;8.13;3.17;;;;;;;26.00;34.15;98442.22;8518080;27;20515;-69
2021/06/04 10:40:05;;;;;;;11.90;3.20;;;;;;;25.97;34.58;98437.25;8517458;27;20205;-69
2021/06/04 10:44:15;;;;;;;10.87;3.33;;;;;;;25.86;33.79;98435.63;8515070;27;20203;-69
2021/06/04 10:48:37;;;;;;;9.13;3.43;;;;;;;26.13;34.47;98428.53;8517895;27;20200;-69
2021/06/04 10:52:51;;;;;;;10.40;3.17;;;;;;;26.82;32.99;98424.13;8517829;27;20219;-69
2021/06/04 10:57:00;;;;;;;3.93;2.90;;;;;;;27.54;31.00;98414.84;8518401;27;20287;-69
2021/06/04 11:01:06;;;;;;;6.57;3.10;;;;;;;27.99;30.14;98414.38;8517574;27;20203;-69
2021/06/04 11:05:21;;;;;;;4.07;2.70;;;;;;;28.42;28.99;98409.59;8517671;27;20198;-69
2021/06/04 11:09:27;;;;;;;4.50;2.73;;;;;;;28.35;28.80;98415.78;8512620;27;20257;-69
2021/06/04 11:13:37;;;;;;;8.20;3.10;;;;;;;28.40;27.50;98416.09;8514202;27;20247;-69
2021/06/04 11:17:45;;;;;;;6.10;2.70;;;;;;;28.13;28.01;98404.84;8515924;27;20264;-71
2021/06/04 11:21:50;;;;;;;3.40;2.40;;;;;;;28.66;29.05;98391.91;8517366;27;20199;-69
2021/06/04 11:25:55;;;;;;;4.50;2.40;;;;;;;29.24;27.73;98389.75;8517034;27;20226;-69
2021/06/04 11:29:57;;;;;;;6.97;2.60;;;;;;;29.02;27.33;98397.53;8498370;27;20199;-68
2021/06/04 11:34:05;;;;;;;5.27;2.77;;;;;;;28.72;26.75;98388.53;8516869;28;20200;-68
2021/06/04 11:38:11;;;;;;;5.67;2.67;;;;;;;29.26;26.50;98395.75;8517190;28;20204;-69
2021/06/04 11:42:23;;;;;;;4.83;2.40;;;;;;;29.62;24.99;98392.47;8515908;28;20363;-69
2021/06/04 11:46:29;;;;;;;6.20;2.40;;;;;;;29.63;25.42;98383.47;8515020;28;20207;-70
2021/06/04 11:50:36;;;;;;;2.30;2.07;;;;;;;29.86;24.76;98371.97;8516333;28;20224;-70
2021/06/04 11:54:42;;;;;;;3.73;2.73;;;;;;;29.70;25.21;98365.75;8516070;28;20223;-70
2021/06/04 11:58:51;;;;;;;5.10;2.50;;;;;;;29.59;24.94;98358.19;8515794;28;20480;-69
2021/06/04 12:02:55;;;;;;;5.03;2.50;;;;;;;29.68;24.86;98351.72;8513144;28;20263;-70
2021/06/04 12:07:04;;;;;;;9.80;2.60;;;;;;;30.08;24.54;98359.56;8516548;28;20258;-70
2021/06/04 12:11:34;;;;;;;4.10;2.20;;;;;;;30.28;24.27;98343.81;8516419;28;20220;-69
2021/06/04 12:15:45;;;;;;;7.50;2.53;;;;;;;30.11;24.21;98344.00;8515846;28;20220;-70
2021/06/04 12:20:33;;;;;;;4.17;2.20;;;;;;;30.71;24.26;98330.59;8515622;28;20196;-67
2021/06/04 12:25:00;;;;;;;4.47;2.50;;;;;;;29.59;25.30;98332.31;8488882;28;20193;-68
2021/06/04 12:29:39;;;;;;;4.43;2.20;;;;;;;29.94;25.43;98321.16;8518251;27;20390;-68
2021/06/04 12:34:01;;;;;;;7.03;2.50;;;;;;;30.22;25.08;98321.34;8522192;27;20403;-68
2021/06/04 12:38:29;;;;;;;9.87;2.60;;;;;;;30.31;22.76;98324.72;8519361;27;20190;-68
2021/06/04 12:42:38;;;;;;;5.60;2.30;;;;;;;30.28;22.96;98320.59;8522566;27;20522;-68
2021/06/04 12:46:41;;;;;;;3.53;2.23;;;;;;;30.26;23.86;98333.31;8510192;27;20360;-68
2021/06/04 12:50:46;;;;;;;4.80;2.20;;;;;;;29.58;25.22;98340.50;8503934;27;20214;-67
2021/06/04 12:54:50;;;;;;;6.20;2.10;;;;;;;29.59;24.64;98328.81;8499986;27;20224;-68
2021/06/04 12:58:54;;;;;;;9.33;2.23;;;;;;;29.11;24.69;98321.03;8519193;27;20386;-68
2021/06/04 13:03:07;;;;;;;3.07;2.10;;;;;;;28.96;26.30;98320.94;8520177;27;20528;-68
2021/06/04 13:07:12;;;;;;;4.43;2.80;;;;;;;28.60;25.19;98320.66;8521628;27;20203;-68
2021/06/04 13:11:41;;;;;;;5.30;2.40;;;;;;;28.56;25.34;98314.84;8521593;27;20228;-68
2021/06/04 13:15:44;;;;;;;3.67;2.00;;;;;;;28.30;26.51;98319.59;8521340;27;20207;-67
2021/06/04 13:19:47;;;;;;;2.37;1.80;;;;;;;28.01;26.36;98321.03;8520842;27;20383;-67
2021/06/04 13:23:58;;;;;;;12.03;2.33;;;;;;;27.67;28.00;98344.16;8521039;27;20204;-67
2021/06/04 13:28:05;;;;;;;9.93;2.20;;;;;;;26.95;34.56;98343.94;8521442;27;20227;-67
2021/06/04 13:32:14;;;;;;;6.83;2.07;;;;;;;26.78;35.66;98345.72;8520799;27;20236;-67
2021/06/04 13:36:17;;;;;;;5.93;1.90;;;;;;;26.55;36.22;98350.78;8520425;27;20212;-67
2021/06/04 13:40:21;;;;;;;9.47;2.00;;;;;;;26.45;36.51;98344.78;8520261;27;20506;-67
2021/06/04 13:44:27;;;;;;;7.90;1.80;;;;;;;26.26;36.02;98332.56;8520408;27;20387;-67
2021/06/04 13:48:32;;;;;;;5.20;1.77;;;;;;;26.10;36.42;98334.16;8520197;27;20204;-67
2021/06/04 13:52:34;;;;;;;5.77;2.20;;;;;;;26.05;36.73;98331.16;8520117;27;20221;-67
2021/06/04 13:56:39;;;;;;;8.87;3.93;;;;;;;26.09;36.90;98348.41;8519990;27;20218;-68
2021/06/04 14:00:49;;;;;;;7.23;3.03;;;;;;;25.98;37.22;98356.63;8519514;27;20198;-68
2021/06/04 14:04:54;;;;;;;6.07;3.27;;;;;;;25.97;38.09;98352.34;8517699;27;20209;-67
2021/06/04 14:08:59;;;;;;;6.90;2.30;;;;;;;26.06;37.81;98347.88;8519404;27;20197;-67
2021/06/04 14:13:11;;;;;;;6.00;3.83;;;;;;;25.97;37.94;98346.16;8519489;27;20250;-67
2021/06/04 14:17:20;;;;;;;4.93;2.60;;;;;;;25.86;38.65;98350.72;8519347;27;20207;-67
2021/06/04 14:21:42;;;;;;;4.17;2.40;;;;;;;25.60;39.93;98348.06;8517482;27;20497;-67
2021/06/04 14:25:44;;;;;;;5.37;2.20;;;;;;;25.50;40.27;98347.31;8518929;27;20240;-68
2021/06/04 14:29:55;;;;;;;2.77;1.73;;;;;;;25.47;41.29;98344.97;8518756;27;20201;-67
2021/06/04 14:33:59;;;;;;;3.23;2.00;;;;;;;25.27;41.69;98345.16;8518712;27;20228;-67
2021/06/04 14:38:01;;;;;;;3.97;2.00;;;;;;;25.08;41.61;98342.63;8518521;27;20208;-67
2021/06/04 14:42:13;;;;;;;5.67;1.90;;;;;;;25.09;43.11;98342.47;8518961;27;20206;-69
2021/06/04 14:46:24;;;;;;;2.50;1.80;;;;;;;24.97;42.01;98333.06;8518826;27;20204;-67
2021/06/04 14:50:32;;;;;;;4.60;1.77;;;;;;;24.84;42.38;98332.59;8518664;27;20397;-67
2021/06/04 14:54:34;;;;;;;3.50;1.80;;;;;;;24.91;42.10;98334.50;8517837;27;20244;-67
2021/06/04 14:58:37;;;;;;;2.93;1.40;;;;;;;24.97;42.03;98333.91;8518204;27;20401;-67
2021/06/04 15:02:40;;;;;;;3.30;1.40;;;;;;;24.95;42.25;98335.03;8517885;27;20213;-67
2021/06/04 15:06:44;;;;;;;4.97;1.93;;;;;;;24.82;43.20;98329.28;8517685;27;20215;-67
2021/06/04 15:10:47;;;;;;;3.17;2.70;;;;;;;24.65;43.49;98318.50;8517515;27;20495;-67
2021/06/04 15:14:50;;;;;;;2.63;1.70;;;;;;;24.73;44.00;98323.91;8517547;27;20216;-67
2021/06/04 15:18:53;;;;;;;4.80;1.80;;;;;;;24.63;44.26;98317.81;8517239;27;20204;-67
2021/06/04 15:22:58;;;;;;;4.07;1.80;;;;;;;24.62;44.40;98308.22;8517460;27;20205;-67
2021/06/04 15:27:01;;;;;;;3.93;2.10;;;;;;;24.63;44.75;98317.81;8517202;27;20233;-67
2021/06/04 15:31:07;;;;;;;4.70;2.00;;;;;;;24.48;45.01;98303.38;8517354;27;20256;-67
2021/06/04 15:35:10;;;;;;;3.17;1.77;;;;;;;24.31;46.29;98303.22;8517352;28;20205;-67
2021/06/04 15:39:14;;;;;;;5.77;2.23;;;;;;;24.31;46.98;98291.78;8517179;28;20204;-67
2021/06/04 15:43:17;;;;;;;7.00;2.80;;;;;;;24.29;47.68;98289.25;8517312;28;20211;-67
2021/06/04 15:47:20;;;;;;;34.73;30.87;;;;;;;24.35;47.34;98290.50;8516827;28;20201;-67
2021/06/04 15:51:22;;;;;;;82.50;65.27;;;;;;;24.36;47.39;98290.34;8516720;28;20232;-67
2021/06/04 15:55:27;;;;;;;10.60;7.97;;;;;;;24.35;46.52;98287.84;8516762;28;20220;-67
2021/06/04 15:59:29;;;;;;;12.13;10.83;;;;;;;24.39;46.44;98292.72;8516549;28;20197;-67
2021/06/04 16:03:32;;;;;;;28.37;24.73;;;;;;;24.43;45.93;98292.41;8519645;27;20213;-67
2021/06/04 16:07:35;;;;;;;6.43;4.17;;;;;;;24.35;46.95;98286.06;8523274;27;20197;-67
2021/06/04 16:11:41;;;;;;;6.40;2.37;;;;;;;23.91;48.69;98288.50;8523247;27;20232;-67
2021/06/04 16:15:45;;;;;;;5.57;2.30;;;;;;;24.08;48.25;98288.69;8523597;27;20200;-67
2021/06/04 16:19:47;;;;;;;3.80;2.13;;;;;;;24.08;48.21;98278.94;8523213;27;20198;-67
2021/06/04 16:23:50;;;;;;;4.03;2.27;;;;;;;24.21;47.65;98281.25;8522794;27;20201;-67
2021/06/04 16:27:56;;;;;;;4.40;2.13;;;;;;;24.31;47.34;98274.09;8522729;27;20232;-67
2021/06/04 16:32:00;;;;;;;9.70;2.40;;;;;;;24.34;47.53;98271.16;8522788;27;20225;-67
2021/06/04 16:36:05;;;;;;;5.20;2.50;;;;;;;24.31;47.78;98273.25;8522496;27;20207;-67
2021/06/04 16:40:09;;;;;;;5.07;2.40;;;;;;;24.34;47.31;98271.16;8522406;27;20204;-67
2021/06/04 16:44:12;;;;;;;5.03;2.60;;;;;;;24.36;47.48;98277.13;8522319;27;20421;-67
2021/06/04 16:48:16;;;;;;;7.23;2.40;;;;;;;24.40;47.79;98273.19;8522230;27;20589;-67
2021/06/04 16:52:18;;;;;;;6.30;2.30;;;;;;;24.37;48.05;98270.03;8522077;27;20224;-67
2021/06/04 16:56:21;;;;;;;4.90;2.10;;;;;;;24.34;47.53;98273.78;8521829;27;20225;-67
2021/06/04 17:00:27;;;;;;;6.00;2.50;;;;;;;24.36;48.26;98273.66;8521974;27;20194;-67
2021/06/04 17:04:29;;;;;;;3.93;2.30;;;;;;;24.30;48.69;98277.72;8521623;27;20204;-67
2021/06/04 17:08:32;;;;;;;3.53;1.90;;;;;;;24.29;49.54;98276.03;8521776;27;20201;-67
2021/06/04 17:12:35;;;;;;;4.70;2.50;;;;;;;24.07;49.85;98271.16;8521171;27;20224;-67
2021/06/04 17:16:41;;;;;;;4.57;2.23;;;;;;;24.17;49.37;98274.59;8520871;27;20204;-67
2021/06/04 17:20:43;;;;;;;4.53;2.30;;;;;;;24.15;49.13;98266.78;8521371;27;20207;-67
2021/06/04 17:24:49;;;;;;;3.30;2.00;;;;;;;24.19;48.76;98273.44;8520853;27;20232;-67
2021/06/04 17:28:52;;;;;;;4.90;2.17;;;;;;;24.08;48.51;98280.75;8521142;27;20387;-67
2021/06/04 17:32:56;;;;;;;5.23;2.23;;;;;;;23.98;49.10;98281.63;8520884;27;20221;-67
2021/06/04 17:36:59;;;;;;;5.13;2.30;;;;;;;24.07;49.09;98277.28;8521108;27;20201;-67
2021/06/04 17:41:02;;;;;;;4.30;2.30;;;;;;;24.05;48.77;98275.75;8521129;27;20205;-67
2021/06/04 17:45:07;;;;;;;6.47;2.50;;;;;;;24.07;49.21;98276.44;8520603;27;20204;-68
2021/06/04 17:49:11;;;;;;;16.67;12.00;;;;;;;24.07;49.11;98277.28;8520493;27;20196;-67
2021/06/04 17:53:15;;;;;;;8.43;5.53;;;;;;;24.06;48.99;98272.94;8520311;27;20220;-67
2021/06/04 17:57:18;;;;;;;10.50;5.97;;;;;;;24.04;49.13;98277.56;8519764;27;20217;-68
2021/06/04 18:01:20;;;;;;;6.60;4.10;;;;;;;24.04;49.17;98282.03;8519752;27;20208;-67
2021/06/04 18:05:27;;;;;;;5.50;2.50;;;;;;;24.02;49.07;98270.75;8519601;27;20204;-67
2021/06/04 18:09:29;;;;;;;5.80;3.00;;;;;;;24.00;49.18;98269.06;8519763;27;20212;-67
2021/06/04 18:13:32;;;;;;;7.87;2.90;;;;;;;23.86;49.64;98277.50;8519537;27;20224;-67
2021/06/04 18:17:34;;;;;;;6.10;2.70;;;;;;;23.96;49.91;98286.22;8519091;27;20229;-67
2021/06/04 18:21:38;;;;;;;5.33;2.63;;;;;;;23.98;49.64;98278.97;8519358;27;20390;-67
2021/06/04 18:25:41;;;;;;;6.70;3.70;;;;;;;23.93;50.59;98283.88;8518269;27;20240;-67
2021/06/04 18:29:44;;;;;;;6.83;2.93;;;;;;;23.89;50.87;98281.66;8518730;27;20216;-67
2021/06/04 18:33:46;;;;;;;4.70;2.90;;;;;;;23.87;51.08;98286.25;8518882;27;20267;-67
2021/06/04 18:37:51;;;;;;;5.30;2.70;;;;;;;23.78;52.44;98278.22;8518440;27;20405;-67
2021/06/04 18:41:53;;;;;;;5.10;2.87;;;;;;;23.73;52.80;98271.66;8518476;27;20210;-67
2021/06/04 18:45:56;;;;;;;6.60;2.90;;;;;;;23.74;52.64;98281.25;8518258;27;20197;-67
2021/06/04 18:49:58;;;;;;;9.47;3.43;;;;;;;23.65;53.07;98268.91;8518512;27;20201;-67
2021/06/04 18:54:04;;;;;;;7.73;3.50;;;;;;;23.63;52.58;98263.78;8518185;27;20553;-67
2021/06/04 18:58:07;;;;;;;9.20;4.00;;;;;;;23.59;53.11;98276.44;8518365;27;20235;-67
2021/06/04 19:02:10;;;;;;;6.93;4.20;;;;;;;23.57;53.49;98278.38;8493293;27;20209;-67
2021/06/04 19:06:18;;;;;;;5.83;3.43;;;;;;;23.53;53.29;98282.31;8483710;28;20390;-67
2021/06/04 19:10:23;;;;;;;7.07;3.27;;;;;;;23.53;52.96;98269.09;8483683;28;20200;-67
2021/06/04 19:14:29;;;;;;;4.93;3.03;;;;;;;23.52;53.04;98272.69;8493754;27;20227;-67
2021/06/04 19:18:32;;;;;;;4.80;3.30;;;;;;;23.45;53.10;98271.59;8517540;27;20203;-68